Time;durP1;ratioP1;P1;durP2;ratioP2;P2;SDS_P1;SDS_P2;PMS_P1;PMS_P2;Temp;Humidity;BMP_temperature;BMP_pressure;BME280_temperature;BME280_humidity;BME280_pressure;Samples;Min_cycle;Max_cycle;Signal;HPM_P1;HPM_P2
2023/09/14 04:31:37;;;;;;;0.00;0.00;;;15.00;80.00;;;;;;5316443;23;20059;-78
2023/09/14 04:34:04;;;;;;;0.00;0.00;;;14.90;80.20;;;;;;4936185;29;20027;-78
2023/09/14 04:36:31;;;;;;;0.00;0.00;;;14.80;80.60;;;;;;4939416;29;20058;-79
2023/09/14 04:38:57;;;;;;;0.00;0.00;;;14.80;80.40;;;;;;4939430;29;20039;-79
2023/09/14 04:41:22;;;;;;;0.00;0.00;;;14.80;80.60;;;;;;4933123;29;20032;-79
2023/09/14 04:43:48;;;;;;;0.00;0.00;;;14.80;80.50;;;;;;4916056;29;20059;-79
2023/09/14 04:46:14;;;;;;;0.00;0.00;;;14.90;80.40;;;;;;4939425;29;20028;-79
2023/09/14 04:48:41;;;;;;;0.00;0.00;;;14.80;80.30;;;;;;4939167;29;20020;-79
2023/09/14 04:51:07;;;;;;;0.00;0.00;;;14.80;80.50;;;;;;4939080;29;20024;-79
2023/09/14 04:53:33;;;;;;;0.00;0.00;;;14.70;80.90;;;;;;4918169;29;20055;-78
2023/09/14 04:55:59;;;;;;;0.00;0.00;;;14.70;80.60;;;;;;4912605;29;20110;-75
2023/09/14 04:58:25;;;;;;;0.00;0.00;;;14.70;80.60;;;;;;4938407;29;20031;-79
2023/09/14 05:00:53;;;;;;;0.00;0.00;;;14.70;80.70;;;;;;4936914;29;20094;-77
2023/09/14 05:03:19;;;;;;;0.00;0.00;;;14.70;80.20;;;;;;4938509;29;20091;-78
2023/09/14 05:05:51;;;;;;;0.00;0.00;;;14.70;80.20;;;;;;4938172;29;20091;-78
2023/09/14 05:08:17;;;;;;;0.00;0.00;;;14.80;80.20;;;;;;4937699;29;20028;-77
2023/09/14 05:10:43;;;;;;;0.00;0.00;;;14.80;80.30;;;;;;4937583;29;20032;-79
2023/09/14 05:13:08;;;;;;;0.00;0.00;;;14.70;80.30;;;;;;4938250;29;20039;-78
2023/09/14 05:15:34;;;;;;;0.00;0.00;;;14.80;80.20;;;;;;4937579;29;20036;-77
2023/09/14 05:17:59;;;;;;;0.00;0.00;;;14.80;80.00;;;;;;4937226;29;20078;-78
2023/09/14 05:20:25;;;;;;;0.00;0.00;;;14.80;80.20;;;;;;4938710;29;20612;-76
2023/09/14 05:22:51;;;;;;;0.10;0.10;;;14.80;80.10;;;;;;4938863;29;20020;-79
2023/09/14 05:25:16;;;;;;;0.00;0.00;;;14.70;80.30;;;;;;4921282;29;20094;-80
2023/09/14 05:27:42;;;;;;;0.00;0.00;;;14.70;80.30;;;;;;4936676;29;20447;-84
2023/09/14 05:30:09;;;;;;;0.10;0.10;;;14.70;80.20;;;;;;4921246;29;20043;-78
2023/09/14 05:32:36;;;;;;;0.00;0.00;;;14.60;80.30;;;;;;4919930;29;20114;-77
2023/09/14 05:35:03;;;;;;;0.00;0.00;;;14.60;80.50;;;;;;4919414;29;20040;-78
2023/09/14 05:37:29;;;;;;;0.00;0.00;;;14.50;80.40;;;;;;4919619;29;20035;-78
2023/09/14 05:39:55;;;;;;;0.00;0.00;;;14.60;80.40;;;;;;4933672;29;20036;-78
2023/09/14 05:42:23;;;;;;;0.00;0.00;;;14.60;80.50;;;;;;4909875;29;20472;-78
2023/09/14 05:44:49;;;;;;;0.00;0.00;;;14.60;80.30;;;;;;4919582;29;20036;-78
2023/09/14 05:47:15;;;;;;;0.00;0.00;;;14.60;80.00;;;;;;4929239;29;20035;-78
2023/09/14 05:49:41;;;;;;;0.00;0.00;;;14.60;80.10;;;;;;4934164;29;20020;-78
2023/09/14 05:52:08;;;;;;;0.00;0.00;;;14.50;80.20;;;;;;4917924;29;20039;-79
2023/09/14 05:54:36;;;;;;;0.00;0.00;;;14.60;80.20;;;;;;4914991;29;20422;-77
2023/09/14 05:57:02;;;;;;;0.00;0.00;;;14.60;80.10;;;;;;4917674;29;20035;-78
2023/09/14 05:59:28;;;;;;;0.00;0.00;;;14.70;79.80;;;;;;4931170;29;20035;-78
2023/09/14 06:01:54;;;;;;;0.00;0.00;;;14.70;79.70;;;;;;4932350;29;20373;-76
2023/09/14 06:04:20;;;;;;;0.00;0.00;;;14.70;79.60;;;;;;4935925;29;20028;-76
2023/09/14 06:06:46;;;;;;;0.00;0.00;;;14.70;79.30;;;;;;4934250;29;20482;-77
2023/09/14 06:09:11;;;;;;;0.00;0.00;;;14.70;79.20;;;;;;4937592;29;20064;-77
2023/09/14 06:11:37;;;;;;;0.00;0.00;;;14.70;79.30;;;;;;4937095;29;20515;-77
2023/09/14 06:14:03;;;;;;;0.00;0.00;;;14.60;79.30;;;;;;4937756;29;20031;-77
2023/09/14 06:16:28;;;;;;;0.00;0.00;;;14.60;79.20;;;;;;4937612;29;20072;-77
2023/09/14 06:18:54;;;;;;;0.00;0.00;;;14.70;79.20;;;;;;4936861;29;20380;-77
2023/09/14 06:21:20;;;;;;;0.00;0.00;;;14.70;79.10;;;;;;4920714;29;20020;-78
2023/09/14 06:23:46;;;;;;;0.00;0.00;;;14.70;79.10;;;;;;4920553;29;20055;-77
2023/09/14 06:26:12;;;;;;;0.10;0.10;;;14.80;78.90;;;;;;4937285;29;20019;-77
2023/09/14 06:28:37;;;;;;;0.03;0.03;;;14.80;78.80;;;;;;4917257;29;20039;-77
2023/09/14 06:31:03;;;;;;;0.00;0.00;;;14.80;78.60;;;;;;4935696;29;20055;-77
2023/09/14 06:33:29;;;;;;;0.20;0.00;;;14.90;78.60;;;;;;4937022;29;20059;-77
2023/09/14 06:35:54;;;;;;;0.00;0.00;;;14.90;78.50;;;;;;4933555;29;20055;-77
2023/09/14 06:38:20;;;;;;;0.10;0.10;;;14.90;78.60;;;;;;4936608;29;20093;-77
2023/09/14 06:40:46;;;;;;;0.00;0.00;;;14.90;78.70;;;;;;4936677;29;20047;-78
2023/09/14 06:43:14;;;;;;;0.00;0.00;;;14.90;78.80;;;;;;4935060;29;20027;-77
2023/09/14 06:45:40;;;;;;;0.10;0.10;;;14.90;79.00;;;;;;4936962;29;20024;-77
2023/09/14 06:48:06;;;;;;;0.00;0.00;;;14.90;79.20;;;;;;4938784;29;20038;-77
2023/09/14 06:50:31;;;;;;;0.10;0.10;;;14.90;79.50;;;;;;4937330;29;20059;-78
2023/09/14 06:52:57;;;;;;;0.00;0.00;;;15.00;79.10;;;;;;4941130;29;20027;-77
2023/09/14 06:55:23;;;;;;;0.00;0.00;;;15.10;79.30;;;;;;4940688;29;20026;-77
2023/09/14 06:57:49;;;;;;;0.03;0.03;;;15.20;79.00;;;;;;4940079;29;20039;-77
2023/09/14 07:00:16;;;;;;;0.05;0.05;;;15.20;78.90;;;;;;4939006;29;20032;-77
2023/09/14 07:02:42;;;;;;;0.00;0.00;;;15.20;78.90;;;;;;4940885;29;20027;-77
2023/09/14 07:05:11;;;;;;;0.10;0.10;;;15.30;78.90;;;;;;4937709;29;20055;-78
2023/09/14 07:07:41;;;;;;;0.10;0.10;;;15.40;78.90;;;;;;4938297;29;20026;-77
2023/09/14 07:10:08;;;;;;;0.00;0.00;;;15.50;78.60;;;;;;4939402;29;20027;-77
2023/09/14 07:12:34;;;;;;;0.00;0.00;;;15.70;78.30;;;;;;4938955;29;20031;-77
2023/09/14 07:15:00;;;;;;;0.10;0.10;;;15.80;78.00;;;;;;4923552;29;20060;-78
2023/09/14 07:17:26;;;;;;;0.03;0.03;;;16.00;77.90;;;;;;4940770;29;20020;-78
2023/09/14 07:19:52;;;;;;;0.00;0.00;;;16.10;77.80;;;;;;4940084;29;20106;-77
2023/09/14 07:22:19;;;;;;;0.10;0.10;;;16.20;77.70;;;;;;4940256;29;20455;-78
2023/09/14 07:24:45;;;;;;;0.10;0.10;;;16.30;77.40;;;;;;4940030;29;20040;-78
2023/09/14 07:27:11;;;;;;;0.13;0.13;;;16.50;77.10;;;;;;4940180;29;20487;-77
2023/09/14 07:29:37;;;;;;;0.30;0.30;;;17.20;76.00;;;;;;4940311;29;20479;-78
2023/09/14 07:32:03;;;;;;;0.30;0.30;;;19.20;71.90;;;;;;4939260;29;20058;-78
2023/09/14 07:34:29;;;;;;;0.30;0.30;;;20.90;67.40;;;;;;4922560;29;20038;-78
2023/09/14 07:36:55;;;;;;;0.30;0.30;;;21.50;64.50;;;;;;4923189;29;20031;-78
2023/09/14 07:39:20;;;;;;;0.20;0.20;;;21.30;64.00;;;;;;4939302;29;20048;-78
2023/09/14 07:41:47;;;;;;;0.20;0.20;;;21.00;64.20;;;;;;4939216;29;20056;-78
2023/09/14 07:44:12;;;;;;;0.30;0.30;;;20.60;65.30;;;;;;4939585;29;20035;-78
2023/09/14 07:46:39;;;;;;;0.20;0.20;;;20.20;66.70;;;;;;4924808;29;20091;-77
2023/09/14 07:49:05;;;;;;;0.10;0.10;;;19.80;68.00;;;;;;4939958;29;20036;-77
2023/09/14 07:51:31;;;;;;;0.10;0.10;;;19.40;69.00;;;;;;4940198;29;20020;-77
2023/09/14 07:53:59;;;;;;;0.03;0.03;;;19.10;70.30;;;;;;4938512;29;20863;-77
2023/09/14 07:56:25;;;;;;;0.00;0.00;;;18.90;70.90;;;;;;4937415;29;20039;-78
2023/09/14 07:58:52;;;;;;;0.00;0.00;;;18.80;71.80;;;;;;4939165;29;20040;-78
2023/09/14 08:01:18;;;;;;;0.00;0.00;;;18.80;72.20;;;;;;4920192;29;20027;-77
2023/09/14 08:03:44;;;;;;;0.00;0.00;;;18.70;72.60;;;;;;4938770;29;20039;-78
2023/09/14 08:06:10;;;;;;;0.00;0.00;;;18.70;72.90;;;;;;4935192;29;20348;-77
2023/09/14 08:08:36;;;;;;;0.00;0.00;;;18.80;73.20;;;;;;4937293;29;20103;-77
2023/09/14 08:11:01;;;;;;;0.00;0.00;;;18.80;73.20;;;;;;4940071;29;20500;-78
2023/09/14 08:13:27;;;;;;;0.00;0.00;;;18.90;73.60;;;;;;4940163;29;20079;-77
2023/09/14 08:15:53;;;;;;;0.00;0.00;;;18.90;73.70;;;;;;4934844;29;20637;-77
2023/09/14 08:18:21;;;;;;;0.00;0.00;;;19.00;73.70;;;;;;4930011;29;20039;-77
2023/09/14 08:20:47;;;;;;;0.00;0.00;;;19.00;73.50;;;;;;4936471;29;20031;-77
2023/09/14 08:23:19;;;;;;;0.00;0.00;;;18.90;74.20;;;;;;4921773;29;20407;-77
2023/09/14 08:25:46;;;;;;;0.10;0.10;;;18.90;74.70;;;;;;4938785;29;20028;-77
2023/09/14 08:28:17;;;;;;;0.00;0.00;;;18.90;74.80;;;;;;4937982;29;20028;-78
2023/09/14 08:30:43;;;;;;;0.00;0.00;;;18.90;75.30;;;;;;4922637;29;20048;-78
2023/09/14 08:33:10;;;;;;;0.00;0.00;;;18.80;75.60;;;;;;4937682;29;20047;-78
2023/09/14 08:35:36;;;;;;;0.00;0.00;;;18.70;76.60;;;;;;4939057;29;20035;-78
2023/09/14 08:38:05;;;;;;;0.00;0.00;;;18.60;76.50;;;;;;4939061;29;20047;-78
2023/09/14 08:40:31;;;;;;;0.08;0.08;;;18.60;77.30;;;;;;4938788;29;20035;-78
2023/09/14 08:42:59;;;;;;;0.00;0.00;;;18.60;77.70;;;;;;4921838;29;20028;-78
2023/09/14 08:45:27;;;;;;;0.00;0.00;;;18.70;77.70;;;;;;4939338;29;20091;-78
2023/09/14 08:47:53;;;;;;;0.10;0.10;;;18.70;78.10;;;;;;4922098;29;20028;-78
2023/09/14 08:50:23;;;;;;;0.00;0.00;;;18.70;78.00;;;;;;4938958;29;20023;-78
2023/09/14 08:52:49;;;;;;;0.00;0.00;;;18.80;78.20;;;;;;4939318;29;20476;-78
2023/09/14 08:55:17;;;;;;;0.00;0.00;;;18.80;78.20;;;;;;4939225;29;20027;-78
2023/09/14 08:57:45;;;;;;;0.08;0.08;;;18.90;78.40;;;;;;4938702;29;20062;-78
2023/09/14 09:00:17;;;;;;;0.00;0.00;;;19.00;78.30;;;;;;4939206;29;20042;-78
2023/09/14 09:02:48;;;;;;;0.00;0.00;;;19.10;78.40;;;;;;4939447;29;20041;-78
2023/09/14 09:05:17;;;;;;;0.10;0.10;;;19.20;78.40;;;;;;4938851;29;20295;-78
2023/09/14 09:07:44;;;;;;;0.00;0.00;;;19.30;77.90;;;;;;4921458;29;20027;-78
2023/09/14 09:10:22;;;;;;;0.00;0.00;;;19.40;77.60;;;;;;4938844;29;20507;-77
2023/09/14 09:12:50;;;;;;;0.00;0.00;;;19.40;77.40;;;;;;4938197;29;20106;-78
2023/09/14 09:15:17;;;;;;;0.00;0.00;;;19.40;77.00;;;;;;4915061;29;20726;-78
2023/09/14 09:17:44;;;;;;;0.00;0.00;;;19.50;77.20;;;;;;4930912;29;20028;-78
2023/09/14 09:20:16;;;;;;;0.00;0.00;;;19.50;77.10;;;;;;4930679;29;20028;-78
2023/09/14 09:22:45;;;;;;;0.03;0.03;;;19.40;76.70;;;;;;4921893;29;20038;-78
2023/09/14 09:25:12;;;;;;;0.10;0.10;;;19.40;76.80;;;;;;4939014;29;20042;-78
2023/09/14 09:27:40;;;;;;;0.10;0.10;;;19.30;76.50;;;;;;4921056;29;20028;-78
2023/09/14 09:30:08;;;;;;;0.10;0.10;;;19.20;76.30;;;;;;4921471;29;20051;-78
2023/09/14 09:32:37;;;;;;;0.00;0.00;;;19.30;76.80;;;;;;4921130;29;20055;-78
2023/09/14 09:35:20;;;;;;;0.08;0.08;;;19.40;76.60;;;;;;4937122;29;20028;-78
2023/09/14 09:37:48;;;;;;;0.10;0.10;;;19.60;76.20;;;;;;4934891;29;20467;-75
2023/09/14 09:40:19;;;;;;;0.08;0.08;;;19.80;76.10;;;;;;4927002;29;20051;-76
2023/09/14 09:42:45;;;;;;;0.00;0.00;;;19.80;75.60;;;;;;4937128;29;20076;-76
2023/09/14 09:45:13;;;;;;;0.10;0.10;;;20.00;75.50;;;;;;4917862;29;20122;-75
2023/09/14 09:47:39;;;;;;;0.00;0.00;;;20.00;75.50;;;;;;4938376;29;20103;-76
2023/09/14 09:50:09;;;;;;;0.03;0.03;;;19.80;75.00;;;;;;4940373;29;20031;-76
2023/09/14 09:52:35;;;;;;;0.00;0.00;;;19.80;75.10;;;;;;4936589;29;20023;-76
2023/09/14 09:55:01;;;;;;;0.00;0.00;;;19.80;75.10;;;;;;4934861;29;20475;-76
2023/09/14 09:57:35;;;;;;;0.10;0.10;;;19.80;74.90;;;;;;4937902;29;20094;-76
2023/09/14 10:00:12;;;;;;;0.10;0.10;;;19.90;75.00;;;;;;4937478;29;20027;-76
2023/09/14 10:02:39;;;;;;;0.00;0.00;;;20.00;75.10;;;;;;4935079;29;20024;-77
2023/09/14 10:05:05;;;;;;;0.00;0.00;;;20.10;73.70;;;;;;4937340;29;20044;-77
2023/09/14 10:07:41;;;;;;;0.05;0.05;;;20.10;74.00;;;;;;4934713;29;20027;-76
2023/09/14 10:10:11;;;;;;;0.00;0.00;;;20.20;73.70;;;;;;4933689;29;20511;-75
2023/09/14 10:12:41;;;;;;;0.13;0.13;;;20.20;73.70;;;;;;4937422;29;20031;-75
2023/09/14 10:15:09;;;;;;;0.10;0.10;;;20.40;73.40;;;;;;4918317;29;20034;-76
2023/09/14 10:17:36;;;;;;;0.08;0.08;;;20.50;73.10;;;;;;4929440;29;20071;-75
2023/09/14 10:20:11;;;;;;;0.00;0.00;;;20.80;73.10;;;;;;4931863;29;20047;-76
2023/09/14 10:22:40;;;;;;;0.10;0.10;;;21.00;71.10;;;;;;4938433;29;20023;-76
2023/09/14 10:25:07;;;;;;;0.10;0.10;;;21.20;71.20;;;;;;4940700;29;20035;-76
2023/09/14 10:27:33;;;;;;;0.05;0.05;;;21.30;70.30;;;;;;4924926;29;20048;-76
2023/09/14 10:30:01;;;;;;;0.00;0.00;;;21.30;70.70;;;;;;4939559;29;20567;-76
2023/09/14 10:32:29;;;;;;;0.10;0.10;;;21.40;69.20;;;;;;4941674;29;20047;-78
2023/09/14 10:34:59;;;;;;;0.05;0.05;;;21.50;68.90;;;;;;4922599;29;20028;-76
2023/09/14 10:37:26;;;;;;;0.10;0.10;;;21.70;68.60;;;;;;4938840;29;20024;-76
2023/09/14 10:39:53;;;;;;;0.00;0.00;;;21.90;68.70;;;;;;4923789;29;20051;-77
2023/09/14 10:42:20;;;;;;;0.08;0.08;;;22.10;67.10;;;;;;4923898;29;20043;-77
2023/09/14 10:44:46;;;;;;;0.10;0.10;;;22.30;67.10;;;;;;4923162;29;20024;-76
2023/09/14 10:47:15;;;;;;;0.10;0.10;;;22.40;66.40;;;;;;4940526;29;20028;-78
2023/09/14 10:49:43;;;;;;;0.03;0.03;;;22.40;62.20;;;;;;4923585;29;20030;-77
2023/09/14 10:52:08;;;;;;;0.00;0.00;;;22.50;62.90;;;;;;4941247;29;20112;-76
2023/09/14 10:54:35;;;;;;;0.00;0.00;;;22.50;61.50;;;;;;4940548;29;20063;-75
2023/09/14 10:57:21;;;;;;;0.00;0.00;;;22.60;62.40;;;;;;4923913;29;20036;-74
2023/09/14 10:59:55;;;;;;;0.00;0.00;;;22.50;62.90;;;;;;4938237;29;20470;-76
2023/09/14 11:02:39;;;;;;;0.10;0.10;;;22.30;63.20;;;;;;4940792;29;20023;-76
2023/09/14 11:05:24;;;;;;;0.10;0.10;;;22.00;63.10;;;;;;4935134;29;20444;-76
2023/09/14 11:08:02;;;;;;;0.00;0.00;;;22.20;64.00;;;;;;4938940;29;20031;-77
2023/09/14 11:10:29;;;;;;;0.10;0.10;;;22.30;61.20;;;;;;4938801;29;20559;-79
2023/09/14 11:13:16;;;;;;;0.00;0.00;;;22.40;60.70;;;;;;4940070;29;20435;-77
2023/09/14 11:15:42;;;;;;;0.00;0.00;;;22.50;61.30;;;;;;4941150;29;20110;-77
2023/09/14 11:18:08;;;;;;;0.00;0.00;;;22.60;61.70;;;;;;4923124;29;20067;-77
2023/09/14 11:20:38;;;;;;;0.10;0.10;;;22.60;61.30;;;;;;4932776;29;20049;-86
2023/09/14 11:23:03;;;;;;;0.00;0.00;;;22.70;61.70;;;;;;4924385;29;20036;-79
2023/09/14 11:25:31;;;;;;;0.00;0.00;;;22.60;61.40;;;;;;4933708;29;20034;-78
2023/09/14 11:27:57;;;;;;;0.00;0.00;;;22.70;61.50;;;;;;4923771;29;20449;-78
2023/09/14 11:30:33;;;;;;;0.00;0.00;;;22.60;60.20;;;;;;4923091;29;20032;-79
2023/09/14 11:33:03;;;;;;;0.08;0.08;;;22.70;61.10;;;;;;4940258;29;20106;-79
2023/09/14 11:35:33;;;;;;;0.03;0.03;;;22.80;59.60;;;;;;4939790;29;20492;-79
2023/09/14 11:38:03;;;;;;;0.10;0.10;;;22.80;59.10;;;;;;4940554;29;20035;-79
2023/09/14 11:40:34;;;;;;;0.00;0.00;;;22.90;59.10;;;;;;4939905;29;20023;-78
2023/09/14 11:43:20;;;;;;;0.00;0.00;;;22.90;58.80;;;;;;4940661;29;20506;-78
2023/09/14 11:45:55;;;;;;;0.00;0.00;;;22.60;58.80;;;;;;4921364;29;20031;-78
2023/09/14 11:48:20;;;;;;;0.00;0.00;;;22.20;60.30;;;;;;4920509;29;20526;-77
2023/09/14 11:50:52;;;;;;;0.00;0.00;;;22.00;61.50;;;;;;4922813;29;20031;-78
2023/09/14 11:53:19;;;;;;;0.00;0.00;;;21.80;59.40;;;;;;4939817;29;20412;-78
2023/09/14 11:55:49;;;;;;;0.00;0.00;;;21.70;60.50;;;;;;4939756;29;20174;-78
2023/09/14 11:58:16;;;;;;;0.10;0.10;;;21.70;61.60;;;;;;4939614;29;20043;-78
2023/09/14 12:00:47;;;;;;;0.00;0.00;;;21.80;60.40;;;;;;4940543;29;20043;-78
2023/09/14 12:03:13;;;;;;;0.00;0.00;;;21.90;60.90;;;;;;4922842;29;20035;-78
2023/09/14 12:05:39;;;;;;;0.00;0.00;;;22.00;59.80;;;;;;4939975;29;20103;-78
2023/09/14 12:08:12;;;;;;;0.10;0.10;;;22.10;59.80;;;;;;4939735;29;20028;-78
2023/09/14 12:10:39;;;;;;;0.08;0.08;;;22.50;59.70;;;;;;4939911;29;20036;-78
2023/09/14 12:13:23;;;;;;;0.00;0.00;;;22.90;58.90;;;;;;4940014;29;20123;-77
2023/09/14 12:15:58;;;;;;;0.00;0.00;;;23.20;57.90;;;;;;4939357;29;20506;-78
2023/09/14 12:18:37;;;;;;;0.00;0.00;;;23.20;58.00;;;;;;4939422;29;20032;-78
2023/09/14 12:21:03;;;;;;;0.03;0.03;;;23.00;57.30;;;;;;4940034;29;20031;-77
2023/09/14 12:23:32;;;;;;;0.00;0.00;;;22.80;57.30;;;;;;4922887;29;20115;-78
2023/09/14 12:25:58;;;;;;;0.00;0.00;;;22.80;57.30;;;;;;4939546;29;20113;-77
2023/09/14 12:28:24;;;;;;;0.00;0.00;;;22.60;58.20;;;;;;4938699;29;20028;-78
2023/09/14 12:30:49;;;;;;;0.00;0.00;;;22.40;58.70;;;;;;4922375;29;20058;-78
2023/09/14 12:33:16;;;;;;;0.00;0.00;;;22.50;58.40;;;;;;4939827;29;20545;-77
2023/09/14 12:35:45;;;;;;;0.00;0.00;;;22.50;58.60;;;;;;4939650;29;20035;-79
2023/09/14 12:38:11;;;;;;;0.00;0.00;;;22.30;58.30;;;;;;4922713;29;20451;-78
2023/09/14 12:40:38;;;;;;;0.00;0.00;;;22.30;59.60;;;;;;4922299;29;20029;-79
2023/09/14 12:43:04;;;;;;;0.13;0.10;;;22.30;59.40;;;;;;4939869;29;20030;-78
2023/09/14 12:45:33;;;;;;;0.00;0.00;;;22.60;57.40;;;;;;4938860;29;20024;-78
2023/09/14 12:48:04;;;;;;;0.00;0.00;;;22.80;57.30;;;;;;4938948;29;20110;-79
2023/09/14 12:50:32;;;;;;;0.00;0.00;;;22.70;56.50;;;;;;4923170;29;20039;-78
2023/09/14 12:52:57;;;;;;;0.00;0.00;;;22.70;57.90;;;;;;4939172;29;20396;-79
2023/09/14 12:55:24;;;;;;;0.00;0.00;;;22.80;58.20;;;;;;4939390;29;20027;-79
2023/09/14 12:57:51;;;;;;;0.00;0.00;;;22.90;57.90;;;;;;4921755;29;20043;-79
2023/09/14 13:00:22;;;;;;;0.00;0.00;;;23.30;56.50;;;;;;4939405;29;20172;-79
2023/09/14 13:02:50;;;;;;;0.00;0.00;;;23.50;57.20;;;;;;4939169;29;20027;-79
2023/09/14 13:05:16;;;;;;;0.00;0.00;;;23.80;55.30;;;;;;4938446;29;20060;-77
2023/09/14 13:07:50;;;;;;;0.00;0.00;;;24.00;55.80;;;;;;4939456;29;20024;-81
2023/09/14 13:10:20;;;;;;;0.00;0.00;;;24.10;54.50;;;;;;4936388;29;20506;-78
2023/09/14 13:13:05;;;;;;;0.05;0.05;;;24.20;54.70;;;;;;4938174;29;20038;-79
2023/09/14 13:15:32;;;;;;;0.00;0.00;;;24.30;52.00;;;;;;4937212;29;20027;-78
2023/09/14 13:18:09;;;;;;;0.10;0.00;;;24.10;52.90;;;;;;4938387;29;20027;-78
2023/09/14 13:20:37;;;;;;;0.00;0.00;;;24.30;54.00;;;;;;4935480;29;20448;-79
2023/09/14 13:23:04;;;;;;;0.10;0.10;;;24.30;53.90;;;;;;4938063;29;20042;-79
2023/09/14 13:25:31;;;;;;;0.00;0.00;;;24.40;53.60;;;;;;4937881;29;20106;-79
2023/09/14 13:27:58;;;;;;;0.00;0.00;;;24.50;52.60;;;;;;4937620;29;20028;-79
2023/09/14 13:30:25;;;;;;;0.00;0.00;;;24.70;52.30;;;;;;4937976;29;20063;-79
2023/09/14 13:32:55;;;;;;;0.00;0.00;;;24.80;52.20;;;;;;4938037;29;20117;-79
2023/09/14 13:35:21;;;;;;;0.00;0.00;;;24.90;52.20;;;;;;4933848;29;20496;-79
2023/09/14 13:37:49;;;;;;;0.10;0.10;;;25.00;51.50;;;;;;4936912;29;20043;-79
2023/09/14 13:42:44;;;;;;;0.00;0.00;;;25.00;50.70;;;;;;4937601;29;20035;-79
2023/09/14 13:45:10;;;;;;;0.00;0.00;;;25.00;49.70;;;;;;4937971;29;20062;-79
2023/09/14 13:47:36;;;;;;;0.00;0.00;;;24.90;50.40;;;;;;4938144;29;20028;-79
2023/09/14 13:50:04;;;;;;;0.00;0.00;;;24.90;50.60;;;;;;4938185;29;20488;-79
2023/09/14 13:52:29;;;;;;;0.00;0.00;;;24.90;51.60;;;;;;4937424;29;20034;-79
2023/09/14 13:54:55;;;;;;;0.00;0.00;;;24.90;51.40;;;;;;4934941;29;20024;-78
2023/09/14 13:57:21;;;;;;;0.00;0.00;;;24.90;51.80;;;;;;4920689;29;20471;-79
2023/09/14 13:59:49;;;;;;;0.10;0.00;;;24.80;51.00;;;;;;4937444;29;20064;-78
2023/09/14 14:02:16;;;;;;;0.00;0.00;;;24.80;51.10;;;;;;4938032;29;20673;-81
2023/09/14 14:04:42;;;;;;;0.10;0.00;;;24.80;50.70;;;;;;4920601;29;20023;-77
2023/09/14 14:07:09;;;;;;;0.00;0.00;;;24.80;49.70;;;;;;4915409;29;20419;-78
2023/09/14 14:09:35;;;;;;;0.00;0.00;;;24.70;49.70;;;;;;4929394;29;20024;-77
2023/09/14 14:12:02;;;;;;;0.00;0.00;;;24.70;50.40;;;;;;4920741;29;20739;-78
2023/09/14 14:14:28;;;;;;;0.00;0.00;;;24.70;48.80;;;;;;4937218;29;20032;-78
2023/09/14 14:16:53;;;;;;;0.10;0.10;;;24.70;49.90;;;;;;4937742;29;20031;-78
2023/09/14 14:19:19;;;;;;;0.03;0.00;;;24.70;48.90;;;;;;4919825;29;20032;-78
2023/09/14 14:21:45;;;;;;;0.00;0.00;;;24.70;49.90;;;;;;4937548;29;20028;-78
2023/09/14 14:24:11;;;;;;;0.00;0.00;;;24.70;48.10;;;;;;4937422;29;20031;-77
2023/09/14 14:26:37;;;;;;;0.00;0.00;;;24.70;50.00;;;;;;4920273;29;20028;-78
2023/09/14 14:29:03;;;;;;;0.05;0.05;;;24.60;48.50;;;;;;4937600;29;20132;-77
2023/09/14 14:31:28;;;;;;;0.00;0.00;;;24.60;49.00;;;;;;4937608;29;20100;-77
2023/09/14 14:33:55;;;;;;;0.00;0.00;;;24.70;48.90;;;;;;4935629;29;20562;-76
2023/09/14 14:36:21;;;;;;;0.00;0.00;;;24.80;49.50;;;;;;4918042;29;20102;-77
2023/09/14 14:38:48;;;;;;;0.00;0.00;;;24.70;48.70;;;;;;4935714;29;20032;-77
2023/09/14 14:41:14;;;;;;;0.08;0.08;;;24.70;47.60;;;;;;4920550;29;20099;-77
2023/09/14 14:43:39;;;;;;;0.00;0.00;;;24.70;47.00;;;;;;4937597;29;20031;-77
2023/09/14 14:46:05;;;;;;;0.00;0.00;;;24.70;49.40;;;;;;4917451;29;20127;-78
2023/09/14 14:48:31;;;;;;;0.00;0.00;;;24.70;48.50;;;;;;4929329;29;20024;-77
2023/09/14 14:50:58;;;;;;;0.00;0.00;;;24.70;48.20;;;;;;4918731;29;20058;-77
2023/09/14 14:53:24;;;;;;;0.00;0.00;;;24.70;47.60;;;;;;4936733;29;20138;-77
2023/09/14 14:55:49;;;;;;;0.00;0.00;;;24.60;48.10;;;;;;4937474;29;20063;-77
2023/09/14 14:58:16;;;;;;;0.00;0.00;;;24.70;48.00;;;;;;4937026;29;20459;-77
2023/09/14 15:00:41;;;;;;;0.00;0.00;;;24.70;47.90;;;;;;4936647;29;21009;-77
2023/09/14 15:03:08;;;;;;;0.00;0.00;;;24.60;47.80;;;;;;4930774;29;20031;-77
2023/09/14 15:05:34;;;;;;;0.00;0.00;;;24.60;48.10;;;;;;4915546;29;20020;-77
2023/09/14 15:07:59;;;;;;;0.13;0.03;;;24.60;47.70;;;;;;4920343;29;20020;-77
2023/09/14 15:10:25;;;;;;;0.00;0.00;;;24.60;48.20;;;;;;4939305;29;20038;-77
2023/09/14 15:12:52;;;;;;;0.00;0.00;;;24.60;47.70;;;;;;4924035;29;20015;-77
2023/09/14 15:15:19;;;;;;;0.00;0.00;;;24.50;48.30;;;;;;4940723;29;20043;-77
2023/09/14 15:17:45;;;;;;;0.08;0.08;;;24.60;48.40;;;;;;4940047;29;20027;-76
2023/09/14 15:20:11;;;;;;;0.00;0.00;;;24.60;49.20;;;;;;4940505;29;20468;-77
2023/09/14 15:22:36;;;;;;;0.00;0.00;;;24.60;48.10;;;;;;4923830;29;20031;-77
2023/09/14 15:25:02;;;;;;;0.00;0.00;;;24.60;48.30;;;;;;4940692;29;20032;-80
2023/09/14 15:27:29;;;;;;;0.00;0.00;;;24.50;48.50;;;;;;4940868;29;20034;-77
2023/09/14 15:29:54;;;;;;;0.00;0.00;;;24.50;48.10;;;;;;4941298;29;20036;-77
2023/09/14 15:32:20;;;;;;;0.05;0.05;;;24.50;47.80;;;;;;4940957;29;20055;-77
2023/09/14 15:34:46;;;;;;;0.00;0.00;;;24.50;48.20;;;;;;4940525;29;20156;-78
2023/09/14 15:37:13;;;;;;;0.00;0.00;;;24.50;49.00;;;;;;4934204;29;20084;-77
2023/09/14 15:39:39;;;;;;;0.00;0.00;;;24.50;47.90;;;;;;4937388;29;20051;-77
2023/09/14 15:42:05;;;;;;;0.00;0.00;;;24.50;48.30;;;;;;4939184;29;20034;-77
2023/09/14 15:44:36;;;;;;;0.00;0.00;;;24.50;48.30;;;;;;4939790;29;20483;-77
2023/09/14 15:47:02;;;;;;;0.00;0.00;;;24.40;49.70;;;;;;4938153;29;20028;-77
2023/09/14 15:49:28;;;;;;;0.00;0.00;;;24.40;48.90;;;;;;4940239;29;20034;-77
2023/09/14 15:51:54;;;;;;;0.40;0.03;;;24.50;49.00;;;;;;4939982;29;20051;-77
2023/09/14 15:54:20;;;;;;;0.00;0.00;;;24.40;47.90;;;;;;4939996;29;20063;-77
2023/09/14 15:56:47;;;;;;;0.00;0.00;;;24.40;47.10;;;;;;4940132;29;20106;-77
2023/09/14 15:59:13;;;;;;;0.00;0.00;;;24.30;47.70;;;;;;4937589;29;20028;-77
2023/09/14 16:01:39;;;;;;;0.10;0.03;;;24.30;47.50;;;;;;4939183;29;20551;-77
2023/09/14 16:04:06;;;;;;;0.00;0.00;;;24.30;47.60;;;;;;4932108;29;20043;-77
2023/09/14 16:06:31;;;;;;;0.00;0.00;;;24.30;47.70;;;;;;4937067;29;20020;-77
2023/09/14 16:08:57;;;;;;;0.00;0.00;;;24.30;48.30;;;;;;4939623;29;20030;-77
2023/09/14 16:11:23;;;;;;;0.00;0.00;;;24.30;48.70;;;;;;4922528;29;20028;-77
2023/09/14 16:13:48;;;;;;;0.00;0.00;;;24.30;48.90;;;;;;4940016;29;20032;-77
2023/09/14 16:16:14;;;;;;;0.00;0.00;;;24.20;49.20;;;;;;4938138;29;20558;-77
2023/09/14 16:18:40;;;;;;;0.00;0.00;;;24.20;48.90;;;;;;4940140;29;20032;-78
2023/09/14 16:21:06;;;;;;;0.00;0.00;;;24.20;48.10;;;;;;4939104;29;20039;-78
2023/09/14 16:23:32;;;;;;;0.00;0.00;;;24.20;48.10;;;;;;4939543;29;20051;-78
2023/09/14 16:25:58;;;;;;;0.00;0.00;;;24.10;47.70;;;;;;4921796;29;20030;-78
2023/09/14 16:28:23;;;;;;;0.00;0.00;;;24.10;48.30;;;;;;4939071;29;20028;-78
2023/09/14 16:30:50;;;;;;;0.00;0.00;;;24.10;49.40;;;;;;4921164;29;20047;-80
2023/09/14 16:33:17;;;;;;;0.00;0.00;;;24.10;49.40;;;;;;4936915;29;20036;-78
2023/09/14 16:35:44;;;;;;;0.00;0.00;;;24.00;49.20;;;;;;4921402;29;20023;-79
2023/09/14 16:38:09;;;;;;;0.00;0.00;;;23.90;49.40;;;;;;4938867;29;20051;-79
2023/09/14 16:40:35;;;;;;;0.00;0.00;;;23.90;49.50;;;;;;4936674;29;20547;-79
2023/09/14 16:43:02;;;;;;;0.00;0.00;;;23.80;49.70;;;;;;4939422;29;20036;-77
2023/09/14 16:45:28;;;;;;;0.00;0.00;;;23.90;50.00;;;;;;4938581;29;20036;-79
2023/09/14 16:47:55;;;;;;;0.00;0.00;;;23.80;50.60;;;;;;4939323;29;20443;-78
2023/09/14 16:50:22;;;;;;;0.00;0.00;;;23.80;50.20;;;;;;4929327;29;20024;-80
2023/09/14 16:52:48;;;;;;;0.00;0.00;;;23.70;50.70;;;;;;4938147;29;20031;-77
2023/09/14 16:55:16;;;;;;;0.00;0.00;;;23.60;50.80;;;;;;4937646;29;20031;-78
2023/09/14 16:57:42;;;;;;;0.00;0.00;;;23.60;51.50;;;;;;4917293;29;20027;-86
2023/09/14 17:00:08;;;;;;;0.00;0.00;;;23.50;51.60;;;;;;4937608;29;20095;-79
2023/09/14 17:02:34;;;;;;;0.00;0.00;;;23.40;52.20;;;;;;4918467;29;20122;-79
2023/09/14 17:05:00;;;;;;;0.00;0.00;;;23.40;51.70;;;;;;4937133;29;20016;-78
2023/09/14 17:07:27;;;;;;;0.00;0.00;;;23.30;51.70;;;;;;4934545;29;20028;-78
2023/09/14 17:09:53;;;;;;;0.00;0.00;;;23.30;51.80;;;;;;4935750;29;20028;-77
2023/09/14 17:12:19;;;;;;;0.00;0.00;;;23.20;52.00;;;;;;4920481;29;20063;-77
2023/09/14 17:14:46;;;;;;;0.00;0.00;;;23.20;52.70;;;;;;4938749;29;20030;-79
2023/09/14 17:17:11;;;;;;;0.00;0.00;;;23.10;53.20;;;;;;4938010;29;20031;-77
2023/09/14 17:19:37;;;;;;;0.00;0.00;;;23.00;53.00;;;;;;4934937;29;20042;-78
2023/09/14 17:22:04;;;;;;;0.15;0.00;;;23.00;53.10;;;;;;4926567;29;20040;-76